sensor_id;sensor_type;location;lat;lon;timestamp;noise_LAeq;noise_LA_min;noise_LA_max;noise_LA01;noise_LA95
80864;Laerm;70936;51.680;5.974;2023-11-22T00:02:20;29.12;28.44;29.8;;
80864;Laerm;70936;51.680;5.974;2023-11-22T00:06:20;29.29;28.44;37.15;;
80864;Laerm;70936;51.680;5.974;2023-11-22T00:10:20;29.16;28.45;38.03;;
80864;Laerm;70936;51.680;5.974;2023-11-22T00:14:20;29.12;28.48;29.95;;
80864;Laerm;70936;51.680;5.974;2023-11-22T00:18:20;29.19;28.32;35.47;;
80864;Laerm;70936;51.680;5.974;2023-11-22T00:22:20;29.12;28.32;29.85;;
80864;Laerm;70936;51.680;5.974;2023-11-22T00:26:20;29.26;28.37;36.04;;
80864;Laerm;70936;51.680;5.974;2023-11-22T00:30:20;29.14;28.42;29.81;;
80864;Laerm;70936;51.680;5.974;2023-11-22T00:34:20;29.16;28.34;30.92;;
80864;Laerm;70936;51.680;5.974;2023-11-22T00:38:20;29.12;28.44;29.75;;
80864;Laerm;70936;51.680;5.974;2023-11-22T00:42:20;29.11;28.4;29.94;;
80864;Laerm;70936;51.680;5.974;2023-11-22T00:46:20;29.11;28.41;29.81;;
80864;Laerm;70936;51.680;5.974;2023-11-22T00:50:20;29.58;28.39;41.66;;
80864;Laerm;70936;51.680;5.974;2023-11-22T00:54:20;29.27;28.34;35.67;;
80864;Laerm;70936;51.680;5.974;2023-11-22T00:58:21;29.19;28.33;34.1;;
80864;Laerm;70936;51.680;5.974;2023-11-22T01:02:20;29.23;28.35;33.79;;
80864;Laerm;70936;51.680;5.974;2023-11-22T01:06:20;29.12;28.5;29.75;;
80864;Laerm;70936;51.680;5.974;2023-11-22T01:10:20;29.2;28.34;32.48;;
80864;Laerm;70936;51.680;5.974;2023-11-22T01:14:20;29.21;28.35;35.54;;
80864;Laerm;70936;51.680;5.974;2023-11-22T01:18:20;29.12;28.42;29.87;;
80864;Laerm;70936;51.680;5.974;2023-11-22T01:22:20;29.11;28.35;29.79;;
80864;Laerm;70936;51.680;5.974;2023-11-22T01:26:20;29.11;28.32;29.77;;
80864;Laerm;70936;51.680;5.974;2023-11-22T01:30:20;30.05;28.33;44.7;;
80864;Laerm;70936;51.680;5.974;2023-11-22T01:34:20;29.12;28.31;29.81;;
80864;Laerm;70936;51.680;5.974;2023-11-22T01:38:20;29.11;28.34;29.8;;
80864;Laerm;70936;51.680;5.974;2023-11-22T01:42:20;29.12;28.4;29.8;;
80864;Laerm;70936;51.680;5.974;2023-11-22T01:46:22;29.1;28.39;29.89;;
80864;Laerm;70936;51.680;5.974;2023-11-22T01:50:20;29.58;28.33;40.13;;
80864;Laerm;70936;51.680;5.974;2023-11-22T01:54:20;29.12;28.13;29.73;;
80864;Laerm;70936;51.680;5.974;2023-11-22T01:58:20;29.12;28.39;29.88;;
80864;Laerm;70936;51.680;5.974;2023-11-22T02:02:20;29.11;28.34;29.77;;
80864;Laerm;70936;51.680;5.974;2023-11-22T02:06:20;29.12;28.4;29.81;;
80864;Laerm;70936;51.680;5.974;2023-11-22T02:10:20;29.12;28.43;30.67;;
80864;Laerm;70936;51.680;5.974;2023-11-22T02:14:20;29.7;28.46;42.17;;
80864;Laerm;70936;51.680;5.974;2023-11-22T02:18:20;29.22;28.4;38.26;;
80864;Laerm;70936;51.680;5.974;2023-11-22T02:22:20;29.2;28.38;33.74;;
80864;Laerm;70936;51.680;5.974;2023-11-22T02:26:20;29.12;28.26;29.98;;
80864;Laerm;70936;51.680;5.974;2023-11-22T02:30:20;29.14;28.3;37.35;;
80864;Laerm;70936;51.680;5.974;2023-11-22T02:34:20;29.12;28.34;29.72;;
80864;Laerm;70936;51.680;5.974;2023-11-22T02:38:20;29.13;28.49;29.81;;
80864;Laerm;70936;51.680;5.974;2023-11-22T02:42:20;29.13;28.23;29.82;;
80864;Laerm;70936;51.680;5.974;2023-11-22T02:46:20;29.12;28.27;32.32;;
80864;Laerm;70936;51.680;5.974;2023-11-22T02:50:20;29.14;28.37;37.12;;
80864;Laerm;70936;51.680;5.974;2023-11-22T02:54:20;29.12;28.12;29.89;;
80864;Laerm;70936;51.680;5.974;2023-11-22T02:58:20;29.13;28.21;29.85;;
80864;Laerm;70936;51.680;5.974;2023-11-22T03:02:20;29.13;28.31;29.81;;
80864;Laerm;70936;51.680;5.974;2023-11-22T03:06:20;29.25;28.4;36.89;;
80864;Laerm;70936;51.680;5.974;2023-11-22T03:10:20;29.15;28.46;30.28;;
80864;Laerm;70936;51.680;5.974;2023-11-22T03:14:20;29.13;28.34;30.31;;
80864;Laerm;70936;51.680;5.974;2023-11-22T03:18:20;29.56;28.43;37.02;;
80864;Laerm;70936;51.680;5.974;2023-11-22T03:22:20;29.18;28.44;33.35;;
80864;Laerm;70936;51.680;5.974;2023-11-22T03:26:20;29.61;28.36;38.87;;
80864;Laerm;70936;51.680;5.974;2023-11-22T03:30:20;29.83;28.43;41.45;;
80864;Laerm;70936;51.680;5.974;2023-11-22T03:34:21;29.17;28.46;29.92;;
80864;Laerm;70936;51.680;5.974;2023-11-22T03:38:20;29.14;28.3;29.88;;
80864;Laerm;70936;51.680;5.974;2023-11-22T03:42:20;29.2;28.37;34.34;;
80864;Laerm;70936;51.680;5.974;2023-11-22T03:46:20;29.42;28.43;36.92;;
80864;Laerm;70936;51.680;5.974;2023-11-22T03:50:20;29.16;28.45;29.95;;
80864;Laerm;70936;51.680;5.974;2023-11-22T03:54:20;30.12;28.44;42.84;;
80864;Laerm;70936;51.680;5.974;2023-11-22T03:58:20;29.16;28.51;29.94;;
80864;Laerm;70936;51.680;5.974;2023-11-22T04:02:20;29.15;28.27;30.03;;
80864;Laerm;70936;51.680;5.974;2023-11-22T04:06:20;30.47;28.53;45.07;;
80864;Laerm;70936;51.680;5.974;2023-11-22T04:10:20;30.09;28.36;39.63;;
80864;Laerm;70936;51.680;5.974;2023-11-22T04:14:21;30.86;28.47;43.49;;
80864;Laerm;70936;51.680;5.974;2023-11-22T04:18:20;29.89;28.41;42.64;;
80864;Laerm;70936;51.680;5.974;2023-11-22T04:22:20;29.3;28.5;34.95;;
80864;Laerm;70936;51.680;5.974;2023-11-22T04:26:20;30.14;28.49;41.14;;
80864;Laerm;70936;51.680;5.974;2023-11-22T04:30:21;29.56;28.43;36.05;;
80864;Laerm;70936;51.680;5.974;2023-11-22T04:34:20;29.83;28.43;40.52;;
80864;Laerm;70936;51.680;5.974;2023-11-22T04:38:20;29.56;28.33;39.56;;
80864;Laerm;70936;51.680;5.974;2023-11-22T04:42:20;30.12;28.57;38.92;;
80864;Laerm;70936;51.680;5.974;2023-11-22T04:46:20;29.91;28.5;37.77;;
80864;Laerm;70936;51.680;5.974;2023-11-22T04:50:20;29.77;28.44;37.49;;
80864;Laerm;70936;51.680;5.974;2023-11-22T04:54:20;29.62;28.53;36.74;;
80864;Laerm;70936;51.680;5.974;2023-11-22T04:58:20;33.29;28.55;47.12;;
80864;Laerm;70936;51.680;5.974;2023-11-22T05:02:20;31.25;28.61;40.18;;
80864;Laerm;70936;51.680;5.974;2023-11-22T05:06:20;30.7;28.64;41.78;;
80864;Laerm;70936;51.680;5.974;2023-11-22T05:10:20;31.55;28.64;44.14;;
80864;Laerm;70936;51.680;5.974;2023-11-22T05:14:20;29.8;28.52;37.59;;
80864;Laerm;70936;51.680;5.974;2023-11-22T05:18:20;30.67;28.42;45.5;;
80864;Laerm;70936;51.680;5.974;2023-11-22T05:22:20;30.95;28.53;43.33;;
80864;Laerm;70936;51.680;5.974;2023-11-22T05:26:20;30.5;28.56;43.7;;
80864;Laerm;70936;51.680;5.974;2023-11-22T05:30:21;32.8;28.77;45.42;;
80864;Laerm;70936;51.680;5.974;2023-11-22T05:34:21;32.75;28.61;47.27;;
80864;Laerm;70936;51.680;5.974;2023-11-22T05:38:20;30.37;28.58;41.96;;
80864;Laerm;70936;51.680;5.974;2023-11-22T05:42:20;31.02;28.43;40.34;;
80864;Laerm;70936;51.680;5.974;2023-11-22T05:46:21;32.2;28.58;43.44;;
80864;Laerm;70936;51.680;5.974;2023-11-22T05:50:20;32.52;28.66;49.94;;
80864;Laerm;70936;51.680;5.974;2023-11-22T05:54:20;32.31;28.6;47.13;;
80864;Laerm;70936;51.680;5.974;2023-11-22T05:58:20;35.35;28.63;59.3;;
80864;Laerm;70936;51.680;5.974;2023-11-22T06:02:20;32.47;28.66;49.15;;
80864;Laerm;70936;51.680;5.974;2023-11-22T06:06:20;31.64;28.46;46.25;;
80864;Laerm;70936;51.680;5.974;2023-11-22T06:10:20;33.42;28.56;53.46;;
80864;Laerm;70936;51.680;5.974;2023-11-22T06:14:20;36.35;28.76;59.75;;
80864;Laerm;70936;51.680;5.974;2023-11-22T06:18:20;33.92;28.53;49.96;;
80864;Laerm;70936;51.680;5.974;2023-11-22T06:22:20;31.68;28.56;46.05;;
80864;Laerm;70936;51.680;5.974;2023-11-22T06:26:21;34.53;28.74;54.28;;
80864;Laerm;70936;51.680;5.974;2023-11-22T06:30:21;32.61;28.69;49.92;;
80864;Laerm;70936;51.680;5.974;2023-11-22T06:34:20;31.77;28.68;45.79;;
80864;Laerm;70936;51.680;5.974;2023-11-22T06:38:20;34.54;28.67;56.49;;
80864;Laerm;70936;51.680;5.974;2023-11-22T06:42:20;33.47;28.64;54.18;;
80864;Laerm;70936;51.680;5.974;2023-11-22T06:46:20;31.57;28.75;49.25;;
80864;Laerm;70936;51.680;5.974;2023-11-22T06:50:20;32.86;28.78;52.04;;
80864;Laerm;70936;51.680;5.974;2023-11-22T06:54:20;33.61;28.79;53.24;;
80864;Laerm;70936;51.680;5.974;2023-11-22T06:58:20;32.03;28.69;54.91;;
80864;Laerm;70936;51.680;5.974;2023-11-22T07:02:20;33;28.75;47.84;;
80864;Laerm;70936;51.680;5.974;2023-11-22T07:06:20;35.02;28.59;55;;
80864;Laerm;70936;51.680;5.974;2023-11-22T07:10:20;32.55;28.76;51.98;;
80864;Laerm;70936;51.680;5.974;2023-11-22T07:14:20;32.06;28.62;48.37;;
80864;Laerm;70936;51.680;5.974;2023-11-22T07:18:20;35.37;28.71;55.31;;
80864;Laerm;70936;51.680;5.974;2023-11-22T07:22:20;35.28;28.87;54.9;;
80864;Laerm;70936;51.680;5.974;2023-11-22T07:26:21;31.13;28.45;43.24;;
80864;Laerm;70936;51.680;5.974;2023-11-22T07:30:20;31.1;28.59;40.16;;
80864;Laerm;70936;51.680;5.974;2023-11-22T07:34:21;32.43;28.71;45.26;;
80864;Laerm;70936;51.680;5.974;2023-11-22T07:38:20;31.83;28.67;43.69;;
80864;Laerm;70936;51.680;5.974;2023-11-22T07:42:20;34.91;28.6;59.69;;
80864;Laerm;70936;51.680;5.974;2023-11-22T07:46:20;34.77;28.72;53.81;;
80864;Laerm;70936;51.680;5.974;2023-11-22T07:50:20;35.75;28.69;56.66;;
80864;Laerm;70936;51.680;5.974;2023-11-22T07:54:20;31.59;28.62;43.16;;
80864;Laerm;70936;51.680;5.974;2023-11-22T07:58:20;31.77;28.62;49.92;;
80864;Laerm;70936;51.680;5.974;2023-11-22T08:02:20;34.92;28.69;54.28;;
80864;Laerm;70936;51.680;5.974;2023-11-22T08:06:21;33.61;28.64;59.29;;
80864;Laerm;70936;51.680;5.974;2023-11-22T08:10:20;32.6;28.77;48.23;;
80864;Laerm;70936;51.680;5.974;2023-11-22T08:14:20;31.14;28.58;50.24;;
80864;Laerm;70936;51.680;5.974;2023-11-22T08:18:20;31.54;28.68;44.64;;
80864;Laerm;70936;51.680;5.974;2023-11-22T08:22:21;30.52;28.55;44.08;;
80864;Laerm;70936;51.680;5.974;2023-11-22T08:26:20;31.28;28.45;46.22;;
80864;Laerm;70936;51.680;5.974;2023-11-22T08:30:20;31.08;28.55;47.74;;
80864;Laerm;70936;51.680;5.974;2023-11-22T08:34:20;30.52;28.58;39.03;;
80864;Laerm;70936;51.680;5.974;2023-11-22T08:38:20;32.21;28.66;49.37;;
80864;Laerm;70936;51.680;5.974;2023-11-22T08:42:20;30.45;28.52;41.73;;
80864;Laerm;70936;51.680;5.974;2023-11-22T08:46:20;31.47;28.51;46.67;;
80864;Laerm;70936;51.680;5.974;2023-11-22T08:50:20;31.64;28.76;45.17;;
80864;Laerm;70936;51.680;5.974;2023-11-22T08:54:20;32.92;28.5;52.14;;
80864;Laerm;70936;51.680;5.974;2023-11-22T08:58:21;31.72;28.6;49.38;;
80864;Laerm;70936;51.680;5.974;2023-11-22T09:02:20;30.42;28.6;40.02;;
80864;Laerm;70936;51.680;5.974;2023-11-22T09:06:20;30.86;28.42;41.49;;
80864;Laerm;70936;51.680;5.974;2023-11-22T09:10:21;30.91;28.54;42.81;;
80864;Laerm;70936;51.680;5.974;2023-11-22T09:14:20;32.04;28.47;52.88;;
80864;Laerm;70936;51.680;5.974;2023-11-22T09:18:20;33.81;28.72;48.1;;
80864;Laerm;70936;51.680;5.974;2023-11-22T09:22:20;32.37;28.59;51.97;;
80864;Laerm;70936;51.680;5.974;2023-11-22T09:26:20;32.41;28.62;53.83;;
80864;Laerm;70936;51.680;5.974;2023-11-22T09:30:21;36.44;28.63;59.05;;
80864;Laerm;70936;51.680;5.974;2023-11-22T09:34:21;30.64;28.46;38.83;;
80864;Laerm;70936;51.680;5.974;2023-11-22T09:38:20;32.5;28.72;49.56;;
80864;Laerm;70936;51.680;5.974;2023-11-22T09:42:20;33.18;28.78;50.07;;
80864;Laerm;70936;51.680;5.974;2023-11-22T09:46:21;31.86;28.46;45.97;;
80864;Laerm;70936;51.680;5.974;2023-11-22T09:50:22;33.95;28.65;48.3;;
80864;Laerm;70936;51.680;5.974;2023-11-22T09:54:20;30.75;28.68;43.45;;
80864;Laerm;70936;51.680;5.974;2023-11-22T09:58:20;36.89;28.76;61.68;;
80864;Laerm;70936;51.680;5.974;2023-11-22T10:02:20;31.14;28.61;41.6;;
80864;Laerm;70936;51.680;5.974;2023-11-22T10:06:21;34.04;28.76;51.51;;
80864;Laerm;70936;51.680;5.974;2023-11-22T10:10:20;34.37;28.78;56.19;;
80864;Laerm;70936;51.680;5.974;2023-11-22T10:14:22;31.48;28.7;45.42;;
80864;Laerm;70936;51.680;5.974;2023-11-22T10:18:21;32.54;28.82;52.96;;
80864;Laerm;70936;51.680;5.974;2023-11-22T10:22:20;33.21;28.65;48.27;;
80864;Laerm;70936;51.680;5.974;2023-11-22T10:26:20;33.21;28.81;50.56;;
80864;Laerm;70936;51.680;5.974;2023-11-22T10:30:20;52.84;28.81;85.01;;
80864;Laerm;70936;51.680;5.974;2023-11-22T10:34:21;35.63;28.76;53.61;;
80864;Laerm;70936;51.680;5.974;2023-11-22T10:38:20;32.53;28.7;48.46;;
80864;Laerm;70936;51.680;5.974;2023-11-22T10:42:20;33.31;28.72;56.37;;
80864;Laerm;70936;51.680;5.974;2023-11-22T10:46:20;32.84;28.88;50.19;;
80864;Laerm;70936;51.680;5.974;2023-11-22T10:50:21;33.99;28.76;51.54;;
80864;Laerm;70936;51.680;5.974;2023-11-22T10:54:21;33.6;28.71;50.01;;
80864;Laerm;70936;51.680;5.974;2023-11-22T10:58:20;30.45;28.51;39.58;;
80864;Laerm;70936;51.680;5.974;2023-11-22T11:02:21;30.8;28.55;40.67;;
80864;Laerm;70936;51.680;5.974;2023-11-22T11:06:23;31.99;28.76;49.55;;
80864;Laerm;70936;51.680;5.974;2023-11-22T11:10:20;32.65;28.6;51.32;;
80864;Laerm;70936;51.680;5.974;2023-11-22T11:14:20;34.44;28.84;57.77;;
80864;Laerm;70936;51.680;5.974;2023-11-22T11:18:20;32.54;28.8;48.06;;
80864;Laerm;70936;51.680;5.974;2023-11-22T11:22:21;34.97;28.6;51.69;;
80864;Laerm;70936;51.680;5.974;2023-11-22T11:26:20;32.89;28.49;50.26;;
80864;Laerm;70936;51.680;5.974;2023-11-22T11:30:50;35.28;28.7;56.07;;
80864;Laerm;70936;51.680;5.974;2023-11-22T11:34:20;31.45;28.71;46.22;;
80864;Laerm;70936;51.680;5.974;2023-11-22T11:38:20;32.47;28.56;47.91;;
80864;Laerm;70936;51.680;5.974;2023-11-22T11:42:20;30.67;28.57;44.11;;
80864;Laerm;70936;51.680;5.974;2023-11-22T11:46:21;31.64;28.71;44.97;;
80864;Laerm;70936;51.680;5.974;2023-11-22T11:50:20;31.17;28.55;44.47;;
80864;Laerm;70936;51.680;5.974;2023-11-22T11:54:21;33.39;28.66;54.42;;
80864;Laerm;70936;51.680;5.974;2023-11-22T11:58:20;31.78;28.67;47.31;;
80864;Laerm;70936;51.680;5.974;2023-11-22T12:02:21;31.15;28.64;48.39;;
80864;Laerm;70936;51.680;5.974;2023-11-22T12:06:20;31.58;28.69;45.11;;
80864;Laerm;70936;51.680;5.974;2023-11-22T12:10:20;30.31;28.56;37.07;;
80864;Laerm;70936;51.680;5.974;2023-11-22T12:14:21;31.18;28.66;41.72;;
80864;Laerm;70936;51.680;5.974;2023-11-22T12:18:20;35.98;28.65;56.68;;
80864;Laerm;70936;51.680;5.974;2023-11-22T12:22:20;33.65;28.61;46.92;;
80864;Laerm;70936;51.680;5.974;2023-11-22T12:26:20;32.87;28.64;48.11;;
80864;Laerm;70936;51.680;5.974;2023-11-22T12:30:28;33.79;28.63;50.29;;
80864;Laerm;70936;51.680;5.974;2023-11-22T12:34:22;31.14;28.69;42.13;;
80864;Laerm;70936;51.680;5.974;2023-11-22T12:38:20;31.96;28.57;44.63;;
80864;Laerm;70936;51.680;5.974;2023-11-22T12:42:20;30.67;28.57;41.94;;
80864;Laerm;70936;51.680;5.974;2023-11-22T12:46:20;30.8;28.65;41.43;;
80864;Laerm;70936;51.680;5.974;2023-11-22T12:50:35;31.58;28.66;44.4;;
80864;Laerm;70936;51.680;5.974;2023-11-22T12:54:21;32.07;28.61;45.79;;
80864;Laerm;70936;51.680;5.974;2023-11-22T12:58:22;30.86;28.64;41.58;;
80864;Laerm;70936;51.680;5.974;2023-11-22T13:02:20;31.34;28.59;47.05;;
80864;Laerm;70936;51.680;5.974;2023-11-22T13:06:20;30.66;28.63;39.84;;
80864;Laerm;70936;51.680;5.974;2023-11-22T13:10:20;33.03;28.86;45.82;;
80864;Laerm;70936;51.680;5.974;2023-11-22T13:14:20;34.34;28.67;56.37;;
80864;Laerm;70936;51.680;5.974;2023-11-22T13:18:21;50.66;28.74;82.4;;
80864;Laerm;70936;51.680;5.974;2023-11-22T13:22:20;35.22;29.01;57.89;;
80864;Laerm;70936;51.680;5.974;2023-11-22T13:26:20;33.24;28.68;49.2;;
80864;Laerm;70936;51.680;5.974;2023-11-22T13:30:20;35.38;28.96;54.66;;
80864;Laerm;70936;51.680;5.974;2023-11-22T13:34:20;31.52;28.69;48.16;;
80864;Laerm;70936;51.680;5.974;2023-11-22T13:38:20;34.57;28.78;52.75;;
80864;Laerm;70936;51.680;5.974;2023-11-22T13:42:20;31.57;28.71;43.79;;
80864;Laerm;70936;51.680;5.974;2023-11-22T13:46:20;31.18;28.63;45.77;;
80864;Laerm;70936;51.680;5.974;2023-11-22T13:50:21;33.53;28.7;50.58;;
80864;Laerm;70936;51.680;5.974;2023-11-22T13:54:20;30.37;28.76;38.81;;
80864;Laerm;70936;51.680;5.974;2023-11-22T13:58:20;31.78;28.45;43.69;;
80864;Laerm;70936;51.680;5.974;2023-11-22T14:02:20;32.66;28.49;48.83;;
80864;Laerm;70936;51.680;5.974;2023-11-22T14:06:20;34.19;28.78;52.7;;
80864;Laerm;70936;51.680;5.974;2023-11-22T14:10:21;31.8;28.77;46.83;;
80864;Laerm;70936;51.680;5.974;2023-11-22T14:14:20;32.51;28.73;54.75;;
80864;Laerm;70936;51.680;5.974;2023-11-22T14:18:20;33.07;28.77;50.96;;
80864;Laerm;70936;51.680;5.974;2023-11-22T14:22:20;30.87;28.66;43.61;;
80864;Laerm;70936;51.680;5.974;2023-11-22T14:26:20;32.03;28.68;45.82;;
80864;Laerm;70936;51.680;5.974;2023-11-22T14:30:20;31.03;28.56;42.88;;
80864;Laerm;70936;51.680;5.974;2023-11-22T14:34:20;32.35;28.92;49.81;;
80864;Laerm;70936;51.680;5.974;2023-11-22T14:42:20;32.43;28.61;49.97;;
80864;Laerm;70936;51.680;5.974;2023-11-22T14:46:20;32.22;28.82;48.12;;
80864;Laerm;70936;51.680;5.974;2023-11-22T14:50:21;32.93;28.89;48.96;;
80864;Laerm;70936;51.680;5.974;2023-11-22T14:54:20;32.73;28.7;43.01;;
80864;Laerm;70936;51.680;5.974;2023-11-22T14:58:20;32.57;28.71;51.06;;
80864;Laerm;70936;51.680;5.974;2023-11-22T15:02:20;30.73;28.68;40.46;;
80864;Laerm;70936;51.680;5.974;2023-11-22T15:06:21;33.24;28.74;49.14;;
80864;Laerm;70936;51.680;5.974;2023-11-22T15:10:21;30.4;28.64;37.31;;
80864;Laerm;70936;51.680;5.974;2023-11-22T15:14:20;31.85;28.76;44.25;;
80864;Laerm;70936;51.680;5.974;2023-11-22T15:18:20;30.7;28.69;37.71;;
80864;Laerm;70936;51.680;5.974;2023-11-22T15:22:20;33.97;28.61;52.6;;
80864;Laerm;70936;51.680;5.974;2023-11-22T15:26:22;33.48;28.71;49.76;;
80864;Laerm;70936;51.680;5.974;2023-11-22T15:30:20;30.49;28.67;37.49;;
80864;Laerm;70936;51.680;5.974;2023-11-22T15:34:20;32.48;28.66;48.22;;
80864;Laerm;70936;51.680;5.974;2023-11-22T15:38:20;34.84;28.99;50.49;;
80864;Laerm;70936;51.680;5.974;2023-11-22T15:42:20;33.16;28.7;54.75;;
80864;Laerm;70936;51.680;5.974;2023-11-22T15:46:20;34.24;28.73;53.7;;
80864;Laerm;70936;51.680;5.974;2023-11-22T15:50:20;32.69;28.81;51.27;;
80864;Laerm;70936;51.680;5.974;2023-11-22T15:54:20;31.6;28.65;48.56;;
80864;Laerm;70936;51.680;5.974;2023-11-22T15:58:20;31.8;28.74;51.11;;
80864;Laerm;70936;51.680;5.974;2023-11-22T16:02:20;30.77;28.73;37.94;;
80864;Laerm;70936;51.680;5.974;2023-11-22T16:06:21;32.04;28.94;48.24;;
80864;Laerm;70936;51.680;5.974;2023-11-22T16:10:20;31.45;28.73;51.29;;
80864;Laerm;70936;51.680;5.974;2023-11-22T16:14:20;33.49;28.96;57.58;;
80864;Laerm;70936;51.680;5.974;2023-11-22T16:18:20;37.42;28.89;59.57;;
80864;Laerm;70936;51.680;5.974;2023-11-22T16:22:20;33.67;28.51;49.21;;
80864;Laerm;70936;51.680;5.974;2023-11-22T16:26:20;37.35;28.75;58.53;;
80864;Laerm;70936;51.680;5.974;2023-11-22T16:30:21;36.17;28.82;55.57;;
80864;Laerm;70936;51.680;5.974;2023-11-22T16:34:20;39.38;28.99;63.98;;
80864;Laerm;70936;51.680;5.974;2023-11-22T16:38:20;37.77;28.75;58.84;;
80864;Laerm;70936;51.680;5.974;2023-11-22T16:42:20;35.64;28.79;57.7;;
80864;Laerm;70936;51.680;5.974;2023-11-22T16:46:20;34.08;28.72;49.42;;
80864;Laerm;70936;51.680;5.974;2023-11-22T16:50:20;33.67;28.74;56.53;;
80864;Laerm;70936;51.680;5.974;2023-11-22T16:54:20;30.14;28.65;39.96;;
80864;Laerm;70936;51.680;5.974;2023-11-22T16:58:20;30.66;28.56;39.25;;
80864;Laerm;70936;51.680;5.974;2023-11-22T17:02:20;30.65;28.6;43.99;;
80864;Laerm;70936;51.680;5.974;2023-11-22T17:06:21;30.06;28.61;38.16;;
80864;Laerm;70936;51.680;5.974;2023-11-22T17:10:21;30.15;28.64;35.32;;
80864;Laerm;70936;51.680;5.974;2023-11-22T17:14:20;30.13;28.62;37.77;;
80864;Laerm;70936;51.680;5.974;2023-11-22T17:18:20;30.17;28.72;45.75;;
80864;Laerm;70936;51.680;5.974;2023-11-22T17:22:20;30.14;28.43;39.95;;
80864;Laerm;70936;51.680;5.974;2023-11-22T17:26:20;30.71;28.74;42.34;;
80864;Laerm;70936;51.680;5.974;2023-11-22T17:30:21;30.66;28.68;37.94;;
80864;Laerm;70936;51.680;5.974;2023-11-22T17:34:20;29.95;28.66;40.17;;
80864;Laerm;70936;51.680;5.974;2023-11-22T17:38:20;35.07;28.76;57.78;;
80864;Laerm;70936;51.680;5.974;2023-11-22T17:42:20;30.47;28.69;40.95;;
80864;Laerm;70936;51.680;5.974;2023-11-22T17:46:20;37.78;28.84;59.77;;
80864;Laerm;70936;51.680;5.974;2023-11-22T17:50:20;37.06;28.86;61.02;;
80864;Laerm;70936;51.680;5.974;2023-11-22T17:54:20;36.33;28.76;59.5;;
80864;Laerm;70936;51.680;5.974;2023-11-22T17:58:24;35.59;28.8;54.3;;
80864;Laerm;70936;51.680;5.974;2023-11-22T18:02:20;34.17;28.86;52.37;;
80864;Laerm;70936;51.680;5.974;2023-11-22T18:06:21;30.92;28.64;43.26;;
80864;Laerm;70936;51.680;5.974;2023-11-22T18:10:21;30.62;28.54;44.83;;
80864;Laerm;70936;51.680;5.974;2023-11-22T18:14:20;30.16;28.61;38.98;;
80864;Laerm;70936;51.680;5.974;2023-11-22T18:18:20;30.16;28.65;47.3;;
80864;Laerm;70936;51.680;5.974;2023-11-22T18:22:21;30.14;28.62;38.23;;
80864;Laerm;70936;51.680;5.974;2023-11-22T18:26:20;30.38;28.58;44.38;;
80864;Laerm;70936;51.680;5.974;2023-11-22T18:30:21;30.94;28.61;49.47;;
80864;Laerm;70936;51.680;5.974;2023-11-22T18:34:20;29.88;28.61;36.97;;
80864;Laerm;70936;51.680;5.974;2023-11-22T18:38:20;34.85;28.6;54.41;;
80864;Laerm;70936;51.680;5.974;2023-11-22T18:42:20;30.24;28.47;38.66;;
80864;Laerm;70936;51.680;5.974;2023-11-22T18:46:20;30.39;28.66;42.5;;
80864;Laerm;70936;51.680;5.974;2023-11-22T18:50:20;31.3;28.61;51.6;;
80864;Laerm;70936;51.680;5.974;2023-11-22T18:54:20;33.03;28.73;55.72;;
80864;Laerm;70936;51.680;5.974;2023-11-22T18:58:20;29.84;28.6;35.38;;
80864;Laerm;70936;51.680;5.974;2023-11-22T19:02:21;31.11;28.54;44.89;;
80864;Laerm;70936;51.680;5.974;2023-11-22T19:06:20;31.11;28.65;42.35;;
80864;Laerm;70936;51.680;5.974;2023-11-22T19:10:21;30.54;28.73;47.85;;
80864;Laerm;70936;51.680;5.974;2023-11-22T19:14:20;33.52;28.55;55.27;;
80864;Laerm;70936;51.680;5.974;2023-11-22T19:18:20;29.83;28.67;34.89;;
80864;Laerm;70936;51.680;5.974;2023-11-22T19:22:20;29.86;28.65;36.8;;
80864;Laerm;70936;51.680;5.974;2023-11-22T19:26:21;29.71;28.64;35.38;;
80864;Laerm;70936;51.680;5.974;2023-11-22T19:30:20;30;28.56;40.52;;
80864;Laerm;70936;51.680;5.974;2023-11-22T19:34:20;31.06;28.74;49.24;;
80864;Laerm;70936;51.680;5.974;2023-11-22T19:38:21;30.83;28.78;43.84;;
80864;Laerm;70936;51.680;5.974;2023-11-22T19:42:20;29.89;28.58;36.26;;
80864;Laerm;70936;51.680;5.974;2023-11-22T19:46:20;29.87;28.7;34.96;;
80864;Laerm;70936;51.680;5.974;2023-11-22T19:50:20;29.73;28.73;35.62;;
80864;Laerm;70936;51.680;5.974;2023-11-22T19:54:20;29.63;28.56;36.14;;
80864;Laerm;70936;51.680;5.974;2023-11-22T19:58:20;29.94;28.74;37.57;;
80864;Laerm;70936;51.680;5.974;2023-11-22T20:02:21;30.03;28.57;38.71;;
80864;Laerm;70936;51.680;5.974;2023-11-22T20:06:21;30.1;28.65;45.14;;
80864;Laerm;70936;51.680;5.974;2023-11-22T20:10:20;29.83;28.46;38.8;;
80864;Laerm;70936;51.680;5.974;2023-11-22T20:14:20;29.64;28.6;34.29;;
80864;Laerm;70936;51.680;5.974;2023-11-22T20:18:20;29.98;28.73;35.55;;
80864;Laerm;70936;51.680;5.974;2023-11-22T20:22:20;32.43;28.49;48.1;;
80864;Laerm;70936;51.680;5.974;2023-11-22T20:26:20;29.81;28.71;35.36;;
80864;Laerm;70936;51.680;5.974;2023-11-22T20:30:20;29.83;28.65;40.35;;
80864;Laerm;70936;51.680;5.974;2023-11-22T20:34:20;31.38;28.58;45.69;;
80864;Laerm;70936;51.680;5.974;2023-11-22T20:38:20;30.44;28.69;39.66;;
80864;Laerm;70936;51.680;5.974;2023-11-22T20:42:20;29.84;28.63;39.15;;
80864;Laerm;70936;51.680;5.974;2023-11-22T20:46:20;29.8;28.62;38.07;;
80864;Laerm;70936;51.680;5.974;2023-11-22T20:50:20;30.08;28.61;39.27;;
80864;Laerm;70936;51.680;5.974;2023-11-22T20:54:20;30.29;28.6;44.32;;
80864;Laerm;70936;51.680;5.974;2023-11-22T20:58:20;33.94;28.49;56.28;;
80864;Laerm;70936;51.680;5.974;2023-11-22T21:02:20;32.03;28.62;47.94;;
80864;Laerm;70936;51.680;5.974;2023-11-22T21:06:20;30.63;28.56;39.5;;
80864;Laerm;70936;51.680;5.974;2023-11-22T21:10:20;29.83;28.58;37.6;;
80864;Laerm;70936;51.680;5.974;2023-11-22T21:14:20;29.83;28.45;40.82;;
80864;Laerm;70936;51.680;5.974;2023-11-22T21:18:20;29.39;28.49;33.26;;
80864;Laerm;70936;51.680;5.974;2023-11-22T21:22:20;30.21;28.42;42.56;;
80864;Laerm;70936;51.680;5.974;2023-11-22T21:26:20;29.44;28.46;35.07;;
80864;Laerm;70936;51.680;5.974;2023-11-22T21:30:21;29.58;28.46;41.46;;
80864;Laerm;70936;51.680;5.974;2023-11-22T21:34:20;29.9;28.56;38.56;;
80864;Laerm;70936;51.680;5.974;2023-11-22T21:38:20;29.36;28.38;34.53;;
80864;Laerm;70936;51.680;5.974;2023-11-22T21:42:20;30.61;28.41;50.52;;
80864;Laerm;70936;51.680;5.974;2023-11-22T21:46:20;29.25;28.26;31.23;;
80864;Laerm;70936;51.680;5.974;2023-11-22T21:50:20;29.39;28.58;37.28;;
80864;Laerm;70936;51.680;5.974;2023-11-22T21:54:20;29.41;28.46;36.67;;
80864;Laerm;70936;51.680;5.974;2023-11-22T21:58:21;29.29;28.49;31.99;;
80864;Laerm;70936;51.680;5.974;2023-11-22T22:02:20;29.31;28.54;33.64;;
80864;Laerm;70936;51.680;5.974;2023-11-22T22:06:20;29.31;28.43;34.26;;
80864;Laerm;70936;51.680;5.974;2023-11-22T22:10:20;29.55;28.28;36.25;;
80864;Laerm;70936;51.680;5.974;2023-11-22T22:14:20;29.16;28.46;29.9;;
80864;Laerm;70936;51.680;5.974;2023-11-22T22:18:21;29.37;28.48;34.54;;
80864;Laerm;70936;51.680;5.974;2023-11-22T22:22:20;29.76;28.47;39.95;;
80864;Laerm;70936;51.680;5.974;2023-11-22T22:26:20;29.31;28.39;35.89;;
80864;Laerm;70936;51.680;5.974;2023-11-22T22:30:21;29.43;28.46;36.58;;